createdAt,value
2022-12-19T00:00:19.748Z,-3.60
2022-12-19T00:04:22.565Z,-3.50
2022-12-19T00:08:26.748Z,-3.60
2022-12-19T00:12:29.524Z,-3.80
2022-12-19T00:16:32.446Z,-3.90
2022-12-19T00:20:35.549Z,-3.60
2022-12-19T00:24:39.684Z,-3.40
2022-12-19T00:28:44.018Z,-3.30
2022-12-19T00:32:47.662Z,-3.10
2022-12-19T00:36:50.491Z,-2.90
2022-12-19T00:40:54.807Z,-2.90
2022-12-19T00:44:57.841Z,-2.90
2022-12-19T00:49:04.081Z,-2.70
2022-12-19T00:53:06.844Z,-2.70
2022-12-19T00:57:11.432Z,-2.60
2022-12-19T01:01:19.296Z,-2.80
2022-12-19T01:05:22.204Z,-3.10
2022-12-19T01:09:25.141Z,-3.10
2022-12-19T01:13:32.353Z,-3.20
2022-12-19T01:17:43.503Z,-3.00
2022-12-19T01:21:48.090Z,-2.70
2022-12-19T01:25:55.780Z,-2.60
2022-12-19T01:30:00.017Z,-2.50
2022-12-19T01:34:02.817Z,-2.50
2022-12-19T01:38:08.564Z,-2.50
2022-12-19T01:42:15.720Z,-2.50
2022-12-19T01:46:23.904Z,-2.50
2022-12-19T01:50:35.797Z,-2.40
2022-12-19T01:54:40.987Z,-2.40
2022-12-19T01:58:46.447Z,-2.40
2022-12-19T02:02:58.056Z,-2.50
2022-12-19T02:07:04.737Z,-2.40
2022-12-19T02:11:17.748Z,-2.60
2022-12-19T02:15:21.913Z,-2.50
2022-12-19T02:19:57.042Z,-2.60
2022-12-19T02:24:48.246Z,-2.60
2022-12-19T02:29:14.592Z,-2.70
2022-12-19T02:33:26.547Z,-2.60
2022-12-19T02:37:31.888Z,-2.60
2022-12-19T02:41:46.129Z,-2.70
2022-12-19T02:45:56.881Z,-2.70
2022-12-19T02:50:04.446Z,-2.80
2022-12-19T02:54:08.630Z,-2.70
2022-12-19T02:58:30.787Z,-2.70
2022-12-19T03:02:47.094Z,-2.60
2022-12-19T03:07:04.950Z,-2.70
2022-12-19T03:11:13.326Z,-2.70
2022-12-19T03:15:21.054Z,-2.70
2022-12-19T03:19:25.045Z,-2.60
2022-12-19T03:23:30.512Z,-2.50
2022-12-19T03:27:38.503Z,-2.60
2022-12-19T03:31:43.311Z,-2.60
2022-12-19T03:35:53.814Z,-2.50
2022-12-19T03:40:01.946Z,-2.60
2022-12-19T03:44:06.292Z,-2.90
2022-12-19T03:48:15.834Z,-3.10
2022-12-19T03:52:27.520Z,-3.10
2022-12-19T03:56:38.437Z,-2.60
2022-12-19T04:00:47.236Z,-2.70
2022-12-19T04:04:53.469Z,-2.70
2022-12-19T04:08:57.822Z,-2.60
2022-12-19T04:13:05.856Z,-2.70
2022-12-19T04:17:17.881Z,-2.70
2022-12-19T04:21:26.079Z,-2.50
2022-12-19T04:25:33.066Z,-2.70
2022-12-19T04:29:38.896Z,-2.90
2022-12-19T04:33:41.534Z,-2.90
2022-12-19T04:37:44.636Z,-2.80
2022-12-19T04:41:47.432Z,-2.60
2022-12-19T04:45:56.986Z,-2.70
2022-12-19T04:50:00.272Z,-2.50
2022-12-19T04:54:03.074Z,-2.70
2022-12-19T04:58:06.261Z,-2.50
2022-12-19T05:02:10.524Z,-2.30
2022-12-19T05:06:15.358Z,-2.50
2022-12-19T05:10:18.227Z,-2.40
2022-12-19T05:14:21.128Z,-2.20
2022-12-19T05:18:25.472Z,-2.20
2022-12-19T05:22:28.334Z,-2.00
2022-12-19T05:26:31.196Z,-2.00
2022-12-19T05:30:33.958Z,-2.00
2022-12-19T05:34:38.166Z,-1.90
2022-12-19T05:38:40.982Z,-1.90
2022-12-19T05:42:43.778Z,-1.80
2022-12-19T05:46:46.738Z,-1.70
2022-12-19T05:50:51.582Z,-1.70
2022-12-19T05:54:54.465Z,-1.70
2022-12-19T05:58:57.395Z,-1.70
2022-12-19T06:03:00.329Z,-1.60
2022-12-19T06:07:05.443Z,-1.70
2022-12-19T06:11:09.559Z,-1.70
2022-12-19T06:15:13.511Z,-1.60
2022-12-19T06:19:16.328Z,-1.60
2022-12-19T06:23:20.698Z,-1.60
2022-12-19T06:27:23.550Z,-1.50
2022-12-19T06:31:26.724Z,-1.40
2022-12-19T06:35:29.551Z,-1.40
2022-12-19T06:39:33.650Z,-1.30
2022-12-19T06:43:36.447Z,-1.30
2022-12-19T06:47:39.267Z,-1.30
2022-12-19T06:51:42.048Z,-1.30
2022-12-19T06:55:46.160Z,-1.20
2022-12-19T06:59:48.934Z,-1.20
2022-12-19T07:03:51.942Z,-1.20
2022-12-19T07:07:54.722Z,-1.20
2022-12-19T07:11:59.169Z,-1.30
2022-12-19T07:16:04.798Z,-1.30
2022-12-19T07:20:08.682Z,-1.00
2022-12-19T07:24:12.749Z,-0.80
2022-12-19T07:28:17.588Z,-0.80
2022-12-19T07:32:20.333Z,-0.60
2022-12-19T07:36:23.109Z,-0.70
2022-12-19T07:40:25.818Z,-0.70
2022-12-19T07:44:29.902Z,-0.70
2022-12-19T07:48:32.647Z,-0.50
2022-12-19T07:52:35.376Z,-0.40
2022-12-19T07:56:38.164Z,-0.20
2022-12-19T08:00:42.634Z,-0.10
2022-12-19T08:04:45.461Z,0.10
2022-12-19T08:08:48.241Z,0.10
2022-12-19T08:12:51.338Z,0.20
2022-12-19T08:17:19.698Z,0.30
2022-12-19T08:21:18.224Z,0.20
2022-12-19T08:25:21.034Z,0.40
2022-12-19T08:29:24.126Z,0.70
2022-12-19T08:33:28.664Z,0.80
2022-12-19T08:37:31.470Z,1.10
2022-12-19T08:41:34.276Z,1.20
2022-12-19T08:45:37.128Z,1.30
2022-12-19T08:49:41.305Z,1.40
2022-12-19T08:53:46.171Z,1.60
2022-12-19T08:57:48.934Z,1.80
2022-12-19T09:01:52.149Z,1.80
2022-12-19T09:06:07.055Z,2.00
2022-12-19T09:10:13.280Z,1.90
2022-12-19T09:14:21.178Z,2.20
2022-12-19T09:18:24.415Z,2.40
2022-12-19T09:22:29.571Z,2.60
2022-12-19T09:26:32.945Z,2.70
2022-12-19T09:30:36.794Z,2.60
2022-12-19T09:34:39.824Z,2.80
2022-12-19T09:38:44.479Z,3.00
2022-12-19T09:43:08.788Z,3.00
2022-12-19T09:47:14.460Z,3.10
2022-12-19T09:51:30.454Z,3.20
2022-12-19T09:55:36.697Z,3.30
2022-12-19T09:59:49.725Z,4.10
2022-12-19T10:04:02.350Z,4.50
2022-12-19T10:08:18.033Z,4.60
2022-12-19T10:12:52.275Z,4.60
2022-12-19T10:17:24.121Z,4.60
2022-12-19T10:22:15.859Z,4.70
2022-12-19T10:26:01.270Z,4.60
2022-12-19T10:30:14.452Z,4.40
2022-12-19T10:34:20.715Z,4.30
2022-12-19T10:38:28.299Z,4.30
2022-12-19T10:42:41.738Z,4.30
2022-12-19T10:46:47.396Z,4.50
2022-12-19T10:50:50.552Z,4.70
2022-12-19T10:54:53.321Z,4.90
2022-12-19T10:58:58.882Z,4.70
2022-12-19T11:03:20.386Z,4.60
2022-12-19T11:07:23.378Z,4.70
2022-12-19T11:13:19.422Z,5.20
2022-12-19T11:18:24.913Z,6.00
2022-12-19T11:29:24.991Z,6.80
2022-12-19T11:30:35.208Z,7.50
2022-12-19T11:31:52.977Z,8.30
2022-12-19T11:33:47.013Z,9.10
2022-12-19T11:37:56.029Z,9.70
2022-12-19T11:42:04.130Z,10.10
2022-12-19T11:46:17.663Z,9.80
2022-12-19T11:50:27.657Z,9.40
2022-12-19T11:54:33.633Z,9.30
2022-12-19T11:58:36.441Z,9.10
2022-12-19T12:03:05.771Z,9.00
2022-12-19T12:07:14.442Z,8.80
2022-12-19T12:17:16.960Z,8.60
2022-12-19T12:30:59.574Z,8.30
2022-12-19T12:31:04.639Z,8.20
2022-12-19T12:31:38.594Z,8.10
2022-12-19T12:31:50.628Z,8.20
2022-12-19T12:35:52.365Z,7.90
2022-12-19T12:39:05.627Z,7.80
2022-12-19T12:43:24.537Z,7.40
2022-12-19T12:47:28.995Z,7.30
2022-12-19T12:51:33.849Z,7.20
2022-12-19T12:55:41.281Z,6.90
2022-12-19T12:59:46.745Z,7.10
2022-12-19T13:03:57.424Z,7.70
2022-12-19T13:08:00.312Z,8.10
2022-12-19T13:12:30.400Z,8.40
2022-12-19T13:16:53.490Z,8.60
2022-12-19T13:20:58.830Z,8.80
2022-12-19T13:25:02.020Z,8.70
2022-12-19T13:29:26.797Z,8.20
2022-12-19T13:33:47.018Z,7.80
2022-12-19T13:39:54.296Z,7.60
2022-12-19T13:42:42.267Z,7.30
2022-12-19T13:46:46.846Z,7.20
2022-12-19T13:50:50.551Z,7.20
2022-12-19T13:54:58.693Z,7.20
2022-12-19T13:59:04.871Z,7.20
2022-12-19T14:03:16.395Z,7.20
2022-12-19T14:07:36.760Z,7.00
2022-12-19T14:12:29.758Z,6.90
2022-12-19T14:16:08.090Z,6.60
2022-12-19T14:22:07.369Z,6.50
2022-12-19T14:24:42.707Z,6.40
2022-12-19T14:28:54.949Z,6.30
2022-12-19T14:33:40.719Z,6.20
2022-12-19T14:37:31.473Z,6.00
2022-12-19T14:42:13.978Z,5.80
2022-12-19T14:54:10.928Z,5.60
2022-12-19T14:54:11.033Z,5.70
2022-12-19T14:56:17.751Z,5.50
2022-12-19T14:59:58.164Z,5.50
2022-12-19T15:04:52.641Z,5.40
2022-12-19T15:11:00.470Z,5.30
2022-12-19T15:14:48.362Z,5.20
2022-12-19T15:17:47.133Z,5.10
2022-12-19T15:21:51.999Z,5.10
2022-12-19T15:26:05.776Z,4.90
2022-12-19T15:30:17.890Z,4.90
2022-12-19T15:34:36.213Z,4.80
2022-12-19T15:38:45.863Z,4.70
2022-12-19T15:42:54.999Z,4.70
2022-12-19T15:46:57.947Z,4.70
2022-12-19T15:51:00.783Z,4.60
2022-12-19T15:55:05.610Z,4.60
2022-12-19T15:59:23.369Z,4.60
2022-12-19T16:03:27.287Z,4.60
2022-12-19T16:07:30.405Z,4.50
2022-12-19T16:11:34.634Z,4.50
2022-12-19T16:15:39.531Z,4.50
2022-12-19T16:19:42.400Z,4.60
2022-12-19T16:23:45.234Z,4.50
2022-12-19T16:27:55.035Z,4.50
2022-12-19T16:31:58.201Z,4.50
2022-12-19T16:36:06.021Z,4.40
2022-12-19T16:40:15.071Z,4.50
2022-12-19T16:44:20.649Z,4.50
2022-12-19T16:48:26.426Z,4.40
2022-12-19T16:52:29.336Z,4.40
2022-12-19T16:56:35.460Z,4.30
2022-12-19T17:00:39.648Z,4.30
2022-12-19T17:04:42.823Z,4.30
2022-12-19T17:08:46.390Z,4.30
2022-12-19T17:12:50.167Z,4.30
2022-12-19T17:16:55.857Z,4.30
2022-12-19T17:20:58.998Z,4.20
2022-12-19T17:25:02.001Z,4.10
2022-12-19T17:29:04.895Z,4.30
2022-12-19T17:33:13.083Z,4.10
2022-12-19T17:37:22.181Z,4.10
2022-12-19T17:41:25.467Z,4.00
2022-12-19T17:45:30.575Z,4.30
2022-12-19T17:49:34.975Z,4.10
2022-12-19T17:53:37.839Z,4.00
2022-12-19T17:57:40.676Z,4.00
2022-12-19T18:01:46.545Z,4.30
2022-12-19T18:05:52.542Z,4.10
2022-12-19T18:09:55.336Z,4.10
2022-12-19T18:13:58.358Z,4.20
2022-12-19T18:18:01.220Z,4.30
2022-12-19T18:22:05.456Z,4.30
2022-12-19T18:26:08.296Z,4.30
2022-12-19T18:30:14.617Z,4.30
2022-12-19T18:34:20.266Z,4.30
2022-12-19T18:38:24.961Z,4.00
2022-12-19T18:42:27.739Z,3.90
2022-12-19T18:46:31.706Z,4.20
2022-12-19T18:50:34.878Z,4.20
2022-12-19T18:54:38.996Z,4.10
2022-12-19T18:58:42.380Z,4.20
2022-12-19T19:02:48.237Z,4.20
2022-12-19T19:06:53.625Z,4.20
2022-12-19T19:10:58.124Z,4.10
2022-12-19T19:15:00.969Z,4.10
2022-12-19T19:19:06.870Z,4.10
2022-12-19T19:23:12.359Z,4.30
2022-12-19T19:27:16.607Z,4.20
2022-12-19T19:31:23.234Z,3.90
2022-12-19T19:35:27.234Z,3.90
2022-12-19T19:39:33.875Z,4.00
2022-12-19T19:43:38.072Z,4.10
2022-12-19T19:47:42.435Z,4.00
2022-12-19T19:51:45.311Z,4.00
2022-12-19T19:55:56.610Z,4.10
2022-12-19T20:00:00.755Z,4.10
2022-12-19T20:04:04.099Z,4.00
2022-12-19T20:08:07.001Z,4.10
2022-12-19T20:12:10.139Z,4.00
2022-12-19T20:16:16.656Z,4.10
2022-12-19T20:20:19.873Z,4.10
2022-12-19T20:24:23.459Z,4.10
2022-12-19T20:28:26.246Z,4.10
2022-12-19T20:32:31.475Z,4.10
2022-12-19T20:36:35.008Z,4.10
2022-12-19T20:40:37.848Z,4.00
2022-12-19T20:44:40.659Z,4.30
2022-12-19T20:48:45.906Z,4.20
2022-12-19T20:52:48.681Z,4.10
2022-12-19T20:56:51.508Z,4.10
2022-12-19T21:00:55.885Z,4.10
2022-12-19T21:05:00.291Z,4.10
2022-12-19T21:09:03.308Z,4.10
2022-12-19T21:13:06.108Z,4.10
2022-12-19T21:17:08.909Z,4.20
2022-12-19T21:21:16.209Z,4.20
2022-12-19T21:25:19.046Z,4.20
2022-12-19T21:29:22.067Z,4.20
2022-12-19T21:33:25.098Z,4.30
2022-12-19T21:37:29.342Z,4.20
2022-12-19T21:41:33.385Z,4.30
2022-12-19T21:45:36.242Z,4.20
2022-12-19T21:49:39.066Z,4.30
2022-12-19T21:53:43.878Z,4.10
2022-12-19T21:57:46.893Z,4.10
2022-12-19T22:01:49.937Z,4.00
2022-12-19T22:05:52.963Z,4.00
2022-12-19T22:09:57.154Z,4.00
2022-12-19T22:14:01.187Z,4.20
2022-12-19T22:18:04.018Z,4.10
2022-12-19T22:22:07.175Z,3.90
2022-12-19T22:26:14.253Z,4.10
2022-12-19T22:30:17.190Z,4.20
2022-12-19T22:34:21.858Z,3.80
2022-12-19T22:38:24.667Z,3.80
2022-12-19T22:42:29.656Z,3.80
2022-12-19T22:46:34.232Z,3.90
2022-12-19T22:50:36.998Z,3.90
2022-12-19T22:54:39.802Z,3.90
2022-12-19T22:58:45.696Z,4.00
2022-12-19T23:02:48.747Z,4.00
2022-12-19T23:06:51.742Z,4.10
2022-12-19T23:10:54.874Z,4.00
2022-12-19T23:14:59.344Z,3.90
2022-12-19T23:19:02.252Z,3.90
2022-12-19T23:23:05.180Z,4.00
2022-12-19T23:27:08.046Z,4.00
2022-12-19T23:31:15.804Z,4.00
2022-12-19T23:35:18.654Z,4.10
2022-12-19T23:39:21.508Z,4.00
2022-12-19T23:43:24.348Z,4.10
2022-12-19T23:47:28.690Z,4.00
2022-12-19T23:51:31.593Z,4.00
2022-12-19T23:55:34.399Z,3.80
2022-12-19T23:59:37.412Z,3.80
